sensor_id;sensor_type;location;lat;lon;timestamp;P1;durP1;ratioP1;P2;durP2;ratioP2
19384;SDS011;9828;54.122;17.974;2023-04-29T00:00:32;18.77;;;8.60;;
19384;SDS011;9828;54.122;17.974;2023-04-29T00:05:53;17.13;;;7.77;;
19384;SDS011;9828;54.122;17.974;2023-04-29T00:11:14;16.03;;;7.63;;
19384;SDS011;9828;54.122;17.974;2023-04-29T00:16:35;14.47;;;7.27;;
19384;SDS011;9828;54.122;17.974;2023-04-29T00:21:57;12.90;;;7.27;;
19384;SDS011;9828;54.122;17.974;2023-04-29T00:27:18;10.50;;;6.30;;
19384;SDS011;9828;54.122;17.974;2023-04-29T00:32:40;12.80;;;6.80;;
19384;SDS011;9828;54.122;17.974;2023-04-29T00:38:01;13.40;;;7.03;;
19384;SDS011;9828;54.122;17.974;2023-04-29T00:43:22;9.67;;;6.63;;
19384;SDS011;9828;54.122;17.974;2023-04-29T00:48:44;13.13;;;7.90;;
19384;SDS011;9828;54.122;17.974;2023-04-29T00:54:05;16.20;;;7.67;;
19384;SDS011;9828;54.122;17.974;2023-04-29T00:59:27;16.47;;;7.57;;
19384;SDS011;9828;54.122;17.974;2023-04-29T01:04:53;16.23;;;7.20;;
19384;SDS011;9828;54.122;17.974;2023-04-29T01:15:53;15.20;;;8.10;;
19384;SDS011;9828;54.122;17.974;2023-04-29T01:21:18;14.53;;;8.63;;
19384;SDS011;9828;54.122;17.974;2023-04-29T01:26:41;14.27;;;7.70;;
19384;SDS011;9828;54.122;17.974;2023-04-29T01:32:51;19.23;;;8.77;;
19384;SDS011;9828;54.122;17.974;2023-04-29T01:43:50;15.10;;;8.00;;
19384;SDS011;9828;54.122;17.974;2023-04-29T01:49:34;12.87;;;7.70;;
19384;SDS011;9828;54.122;17.974;2023-04-29T01:54:59;12.93;;;7.80;;
19384;SDS011;9828;54.122;17.974;2023-04-29T02:00:30;10.97;;;7.33;;
19384;SDS011;9828;54.122;17.974;2023-04-29T02:05:51;13.67;;;8.10;;
19384;SDS011;9828;54.122;17.974;2023-04-29T02:11:12;13.67;;;7.83;;
19384;SDS011;9828;54.122;17.974;2023-04-29T02:16:35;12.47;;;7.40;;
19384;SDS011;9828;54.122;17.974;2023-04-29T02:21:59;10.90;;;6.60;;
19384;SDS011;9828;54.122;17.974;2023-04-29T02:27:20;15.63;;;7.37;;
19384;SDS011;9828;54.122;17.974;2023-04-29T02:32:42;12.80;;;8.33;;
19384;SDS011;9828;54.122;17.974;2023-04-29T02:38:06;11.63;;;7.37;;
19384;SDS011;9828;54.122;17.974;2023-04-29T02:43:29;11.23;;;7.57;;
19384;SDS011;9828;54.122;17.974;2023-04-29T02:48:51;13.27;;;7.87;;
19384;SDS011;9828;54.122;17.974;2023-04-29T02:54:12;13.47;;;8.20;;
19384;SDS011;9828;54.122;17.974;2023-04-29T02:59:33;13.07;;;8.07;;
19384;SDS011;9828;54.122;17.974;2023-04-29T03:04:55;10.90;;;8.17;;
19384;SDS011;9828;54.122;17.974;2023-04-29T03:10:17;11.60;;;7.47;;
19384;SDS011;9828;54.122;17.974;2023-04-29T03:15:39;13.97;;;7.07;;
19384;SDS011;9828;54.122;17.974;2023-04-29T03:21:00;12.50;;;8.23;;
19384;SDS011;9828;54.122;17.974;2023-04-29T03:26:24;13.90;;;7.87;;
19384;SDS011;9828;54.122;17.974;2023-04-29T03:31:45;15.20;;;7.90;;
19384;SDS011;9828;54.122;17.974;2023-04-29T03:37:06;13.83;;;8.30;;
19384;SDS011;9828;54.122;17.974;2023-04-29T03:42:31;13.57;;;7.07;;
19384;SDS011;9828;54.122;17.974;2023-04-29T03:47:52;14.37;;;8.70;;
19384;SDS011;9828;54.122;17.974;2023-04-29T03:53:14;15.93;;;9.00;;
19384;SDS011;9828;54.122;17.974;2023-04-29T03:58:36;17.67;;;9.70;;
19384;SDS011;9828;54.122;17.974;2023-04-29T04:03:58;14.73;;;9.03;;
19384;SDS011;9828;54.122;17.974;2023-04-29T04:09:20;13.03;;;8.27;;
19384;SDS011;9828;54.122;17.974;2023-04-29T04:14:41;16.13;;;8.37;;
19384;SDS011;9828;54.122;17.974;2023-04-29T04:20:03;11.80;;;7.87;;
19384;SDS011;9828;54.122;17.974;2023-04-29T04:25:25;16.37;;;9.03;;
19384;SDS011;9828;54.122;17.974;2023-04-29T04:30:51;14.57;;;9.03;;
19384;SDS011;9828;54.122;17.974;2023-04-29T04:36:12;23.47;;;9.53;;
19384;SDS011;9828;54.122;17.974;2023-04-29T04:41:34;12.20;;;8.90;;
19384;SDS011;9828;54.122;17.974;2023-04-29T04:46:56;14.23;;;9.10;;
19384;SDS011;9828;54.122;17.974;2023-04-29T04:52:36;14.90;;;9.00;;
19384;SDS011;9828;54.122;17.974;2023-04-29T04:58:29;13.23;;;8.70;;
19384;SDS011;9828;54.122;17.974;2023-04-29T05:03:54;19.67;;;8.77;;
19384;SDS011;9828;54.122;17.974;2023-04-29T05:09:16;22.43;;;9.63;;
19384;SDS011;9828;54.122;17.974;2023-04-29T05:14:38;20.67;;;11.00;;
19384;SDS011;9828;54.122;17.974;2023-04-29T05:20:00;13.80;;;9.57;;
19384;SDS011;9828;54.122;17.974;2023-04-29T05:25:24;17.93;;;10.50;;
19384;SDS011;9828;54.122;17.974;2023-04-29T05:30:50;16.20;;;10.50;;
19384;SDS011;9828;54.122;17.974;2023-04-29T05:36:12;16.43;;;9.77;;
19384;SDS011;9828;54.122;17.974;2023-04-29T05:41:33;15.23;;;10.87;;
19384;SDS011;9828;54.122;17.974;2023-04-29T05:47:17;21.30;;;12.40;;
19384;SDS011;9828;54.122;17.974;2023-04-29T05:52:39;18.47;;;11.07;;
19384;SDS011;9828;54.122;17.974;2023-04-29T05:58:01;20.53;;;11.47;;
19384;SDS011;9828;54.122;17.974;2023-04-29T06:03:23;18.13;;;10.40;;
19384;SDS011;9828;54.122;17.974;2023-04-29T06:08:53;20.53;;;11.27;;
19384;SDS011;9828;54.122;17.974;2023-04-29T06:14:18;22.67;;;12.27;;
19384;SDS011;9828;54.122;17.974;2023-04-29T06:19:40;15.73;;;9.90;;
19384;SDS011;9828;54.122;17.974;2023-04-29T06:25:02;16.53;;;11.20;;
19384;SDS011;9828;54.122;17.974;2023-04-29T06:30:36;16.73;;;10.87;;
19384;SDS011;9828;54.122;17.974;2023-04-29T06:35:57;20.27;;;12.37;;
19384;SDS011;9828;54.122;17.974;2023-04-29T06:41:37;18.00;;;11.27;;
19384;SDS011;9828;54.122;17.974;2023-04-29T06:47:35;13.87;;;10.47;;
19384;SDS011;9828;54.122;17.974;2023-04-29T06:53:02;15.90;;;10.93;;
19384;SDS011;9828;54.122;17.974;2023-04-29T06:58:23;23.03;;;12.70;;
19384;SDS011;9828;54.122;17.974;2023-04-29T07:03:45;14.50;;;10.93;;
19384;SDS011;9828;54.122;17.974;2023-04-29T07:09:06;19.50;;;11.43;;
19384;SDS011;9828;54.122;17.974;2023-04-29T07:14:29;20.63;;;11.50;;
19384;SDS011;9828;54.122;17.974;2023-04-29T07:19:50;17.50;;;12.20;;
19384;SDS011;9828;54.122;17.974;2023-04-29T07:25:13;20.43;;;12.27;;
19384;SDS011;9828;54.122;17.974;2023-04-29T07:30:34;17.03;;;12.20;;
19384;SDS011;9828;54.122;17.974;2023-04-29T07:35:56;24.40;;;13.50;;
19384;SDS011;9828;54.122;17.974;2023-04-29T07:41:17;23.47;;;13.47;;
19384;SDS011;9828;54.122;17.974;2023-04-29T07:46:39;24.63;;;12.83;;
19384;SDS011;9828;54.122;17.974;2023-04-29T07:52:00;20.43;;;13.23;;
19384;SDS011;9828;54.122;17.974;2023-04-29T07:57:22;27.27;;;15.20;;
19384;SDS011;9828;54.122;17.974;2023-04-29T08:02:43;22.25;;;13.13;;
19384;SDS011;9828;54.122;17.974;2023-04-29T08:08:07;21.42;;;13.05;;
19384;SDS011;9828;54.122;17.974;2023-04-29T08:13:28;23.13;;;14.15;;
19384;SDS011;9828;54.122;17.974;2023-04-29T08:18:49;24.55;;;14.32;;
19384;SDS011;9828;54.122;17.974;2023-04-29T08:24:10;24.70;;;13.80;;
19384;SDS011;9828;54.122;17.974;2023-04-29T08:29:32;24.42;;;14.30;;
19384;SDS011;9828;54.122;17.974;2023-04-29T08:34:54;18.83;;;12.55;;
19384;SDS011;9828;54.122;17.974;2023-04-29T08:40:15;23.88;;;13.88;;
19384;SDS011;9828;54.122;17.974;2023-04-29T08:45:37;15.90;;;11.15;;
19384;SDS011;9828;54.122;17.974;2023-04-29T08:50:59;18.45;;;12.88;;
19384;SDS011;9828;54.122;17.974;2023-04-29T08:56:21;22.83;;;13.32;;
19384;SDS011;9828;54.122;17.974;2023-04-29T09:01:43;19.90;;;13.13;;
19384;SDS011;9828;54.122;17.974;2023-04-29T09:07:10;24.30;;;14.10;;
19384;SDS011;9828;54.122;17.974;2023-04-29T09:12:32;19.83;;;13.05;;
19384;SDS011;9828;54.122;17.974;2023-04-29T09:17:54;18.90;;;13.13;;
19384;SDS011;9828;54.122;17.974;2023-04-29T09:23:15;20.08;;;14.35;;
19384;SDS011;9828;54.122;17.974;2023-04-29T09:28:36;25.48;;;15.00;;
19384;SDS011;9828;54.122;17.974;2023-04-29T09:34:00;18.45;;;13.13;;
19384;SDS011;9828;54.122;17.974;2023-04-29T09:39:22;21.48;;;14.13;;
19384;SDS011;9828;54.122;17.974;2023-04-29T09:44:43;22.60;;;12.65;;
19384;SDS011;9828;54.122;17.974;2023-04-29T09:50:11;18.17;;;13.07;;
19384;SDS011;9828;54.122;17.974;2023-04-29T10:01:12;18.30;;;12.20;;
19384;SDS011;9828;54.122;17.974;2023-04-29T10:06:38;23.65;;;14.20;;
19384;SDS011;9828;54.122;17.974;2023-04-29T10:12:01;23.50;;;12.68;;
19384;SDS011;9828;54.122;17.974;2023-04-29T10:17:33;24.33;;;14.15;;
19384;SDS011;9828;54.122;17.974;2023-04-29T10:22:59;21.20;;;13.90;;
19384;SDS011;9828;54.122;17.974;2023-04-29T10:28:22;20.20;;;13.73;;
19384;SDS011;9828;54.122;17.974;2023-04-29T10:33:45;23.40;;;14.45;;
19384;SDS011;9828;54.122;17.974;2023-04-29T10:39:08;20.17;;;13.75;;
19384;SDS011;9828;54.122;17.974;2023-04-29T10:45:15;25.95;;;14.57;;
19384;SDS011;9828;54.122;17.974;2023-04-29T10:50:43;20.77;;;12.68;;
19384;SDS011;9828;54.122;17.974;2023-04-29T10:56:20;28.95;;;15.27;;
19384;SDS011;9828;54.122;17.974;2023-04-29T11:01:42;15.68;;;12.13;;
19384;SDS011;9828;54.122;17.974;2023-04-29T11:07:08;19.15;;;13.05;;
19384;SDS011;9828;54.122;17.974;2023-04-29T11:12:29;20.10;;;11.57;;
19384;SDS011;9828;54.122;17.974;2023-04-29T11:17:50;24.40;;;14.30;;
19384;SDS011;9828;54.122;17.974;2023-04-29T11:23:12;20.63;;;13.07;;
19384;SDS011;9828;54.122;17.974;2023-04-29T11:28:33;21.00;;;14.10;;
19384;SDS011;9828;54.122;17.974;2023-04-29T11:33:55;22.27;;;13.85;;
19384;SDS011;9828;54.122;17.974;2023-04-29T11:39:16;17.80;;;11.02;;
19384;SDS011;9828;54.122;17.974;2023-04-29T11:44:37;21.70;;;10.20;;
19384;SDS011;9828;54.122;17.974;2023-04-29T11:50:05;16.65;;;8.73;;
19384;SDS011;9828;54.122;17.974;2023-04-29T11:55:29;13.70;;;8.50;;
19384;SDS011;9828;54.122;17.974;2023-04-29T12:00:51;19.50;;;9.48;;
19384;SDS011;9828;54.122;17.974;2023-04-29T12:06:12;14.38;;;8.35;;
19384;SDS011;9828;54.122;17.974;2023-04-29T12:11:35;14.45;;;9.20;;
19384;SDS011;9828;54.122;17.974;2023-04-29T12:16:57;16.77;;;10.80;;
19384;SDS011;9828;54.122;17.974;2023-04-29T12:26:45;8.65;;;6.13;;
19384;SDS011;9828;54.122;17.974;2023-04-29T12:32:06;12.13;;;7.32;;
19384;SDS011;9828;54.122;17.974;2023-04-29T12:37:33;13.50;;;6.57;;
19384;SDS011;9828;54.122;17.974;2023-04-29T12:42:54;8.65;;;6.63;;
19384;SDS011;9828;54.122;17.974;2023-04-29T12:48:16;13.30;;;7.68;;
19384;SDS011;9828;54.122;17.974;2023-04-29T12:53:44;10.05;;;6.53;;
19384;SDS011;9828;54.122;17.974;2023-04-29T12:59:07;11.57;;;7.18;;
19384;SDS011;9828;54.122;17.974;2023-04-29T13:04:29;10.55;;;7.35;;
19384;SDS011;9828;54.122;17.974;2023-04-29T13:09:50;11.18;;;6.88;;
19384;SDS011;9828;54.122;17.974;2023-04-29T13:15:11;12.77;;;8.40;;
19384;SDS011;9828;54.122;17.974;2023-04-29T13:20:33;12.63;;;8.30;;
19384;SDS011;9828;54.122;17.974;2023-04-29T13:25:59;16.58;;;8.95;;
19384;SDS011;9828;54.122;17.974;2023-04-29T13:31:20;14.40;;;9.05;;
19384;SDS011;9828;54.122;17.974;2023-04-29T13:36:42;12.43;;;8.20;;
19384;SDS011;9828;54.122;17.974;2023-04-29T13:42:03;11.55;;;7.88;;
19384;SDS011;9828;54.122;17.974;2023-04-29T13:47:24;8.30;;;6.60;;
19384;SDS011;9828;54.122;17.974;2023-04-29T13:52:49;12.52;;;8.35;;
19384;SDS011;9828;54.122;17.974;2023-04-29T13:58:13;19.80;;;10.25;;
19384;SDS011;9828;54.122;17.974;2023-04-29T14:03:55;15.45;;;10.98;;
19384;SDS011;9828;54.122;17.974;2023-04-29T14:09:16;13.73;;;8.13;;
19384;SDS011;9828;54.122;17.974;2023-04-29T14:14:39;13.25;;;8.38;;
19384;SDS011;9828;54.122;17.974;2023-04-29T14:20:01;15.50;;;8.85;;
19384;SDS011;9828;54.122;17.974;2023-04-29T14:25:22;19.70;;;11.02;;
19384;SDS011;9828;54.122;17.974;2023-04-29T14:30:44;15.20;;;10.48;;
19384;SDS011;9828;54.122;17.974;2023-04-29T14:36:06;15.23;;;10.93;;
19384;SDS011;9828;54.122;17.974;2023-04-29T14:41:28;13.10;;;9.27;;
19384;SDS011;9828;54.122;17.974;2023-04-29T14:46:50;23.67;;;15.63;;
19384;SDS011;9828;54.122;17.974;2023-04-29T14:52:11;17.63;;;11.57;;
19384;SDS011;9828;54.122;17.974;2023-04-29T14:57:32;16.98;;;9.75;;
19384;SDS011;9828;54.122;17.974;2023-04-29T15:02:54;22.38;;;13.77;;
19384;SDS011;9828;54.122;17.974;2023-04-29T15:08:16;16.77;;;11.50;;
19384;SDS011;9828;54.122;17.974;2023-04-29T15:13:38;17.85;;;11.18;;
19384;SDS011;9828;54.122;17.974;2023-04-29T15:18:59;21.50;;;12.75;;
19384;SDS011;9828;54.122;17.974;2023-04-29T15:24:20;26.30;;;13.93;;
19384;SDS011;9828;54.122;17.974;2023-04-29T15:29:41;23.05;;;13.90;;
19384;SDS011;9828;54.122;17.974;2023-04-29T15:35:03;25.08;;;12.70;;
19384;SDS011;9828;54.122;17.974;2023-04-29T15:40:25;23.38;;;11.20;;
19384;SDS011;9828;54.122;17.974;2023-04-29T15:45:47;20.33;;;11.88;;
19384;SDS011;9828;54.122;17.974;2023-04-29T15:51:08;23.90;;;11.50;;
19384;SDS011;9828;54.122;17.974;2023-04-29T15:56:29;15.65;;;10.25;;
19384;SDS011;9828;54.122;17.974;2023-04-29T16:01:50;13.38;;;9.02;;
19384;SDS011;9828;54.122;17.974;2023-04-29T16:07:12;17.85;;;10.00;;
19384;SDS011;9828;54.122;17.974;2023-04-29T16:12:33;13.95;;;10.00;;
19384;SDS011;9828;54.122;17.974;2023-04-29T16:17:54;15.27;;;10.50;;
19384;SDS011;9828;54.122;17.974;2023-04-29T16:23:16;12.73;;;9.90;;
19384;SDS011;9828;54.122;17.974;2023-04-29T16:28:37;17.02;;;11.90;;
19384;SDS011;9828;54.122;17.974;2023-04-29T16:33:58;17.00;;;10.40;;
19384;SDS011;9828;54.122;17.974;2023-04-29T16:39:19;17.27;;;11.98;;
19384;SDS011;9828;54.122;17.974;2023-04-29T16:44:41;14.50;;;9.90;;
19384;SDS011;9828;54.122;17.974;2023-04-29T16:50:02;26.02;;;12.63;;
19384;SDS011;9828;54.122;17.974;2023-04-29T16:55:27;20.65;;;12.05;;
19384;SDS011;9828;54.122;17.974;2023-04-29T17:00:48;19.38;;;12.07;;
19384;SDS011;9828;54.122;17.974;2023-04-29T17:06:09;25.40;;;16.02;;
19384;SDS011;9828;54.122;17.974;2023-04-29T17:11:31;30.23;;;15.95;;
19384;SDS011;9828;54.122;17.974;2023-04-29T17:16:52;20.05;;;13.13;;
19384;SDS011;9828;54.122;17.974;2023-04-29T17:22:13;19.38;;;12.00;;
19384;SDS011;9828;54.122;17.974;2023-04-29T17:27:37;14.38;;;10.85;;
19384;SDS011;9828;54.122;17.974;2023-04-29T17:32:58;16.42;;;10.32;;
19384;SDS011;9828;54.122;17.974;2023-04-29T17:38:25;15.05;;;10.82;;
19384;SDS011;9828;54.122;17.974;2023-04-29T17:43:47;18.52;;;12.25;;
19384;SDS011;9828;54.122;17.974;2023-04-29T17:49:08;15.13;;;11.68;;
19384;SDS011;9828;54.122;17.974;2023-04-29T17:54:30;15.70;;;11.65;;
19384;SDS011;9828;54.122;17.974;2023-04-29T17:59:51;22.70;;;13.25;;
19384;SDS011;9828;54.122;17.974;2023-04-29T18:05:12;16.45;;;10.95;;
19384;SDS011;9828;54.122;17.974;2023-04-29T18:10:33;16.25;;;10.35;;
19384;SDS011;9828;54.122;17.974;2023-04-29T18:15:57;15.02;;;10.30;;
19384;SDS011;9828;54.122;17.974;2023-04-29T18:21:20;11.48;;;9.25;;
19384;SDS011;9828;54.122;17.974;2023-04-29T18:26:42;12.48;;;9.20;;
19384;SDS011;9828;54.122;17.974;2023-04-29T18:32:03;11.98;;;8.10;;
19384;SDS011;9828;54.122;17.974;2023-04-29T18:37:26;22.33;;;7.67;;
19384;SDS011;9828;54.122;17.974;2023-04-29T18:42:48;12.18;;;8.23;;
19384;SDS011;9828;54.122;17.974;2023-04-29T18:48:09;11.93;;;7.30;;
19384;SDS011;9828;54.122;17.974;2023-04-29T18:53:31;9.73;;;7.13;;
19384;SDS011;9828;54.122;17.974;2023-04-29T18:58:52;12.68;;;9.05;;
19384;SDS011;9828;54.122;17.974;2023-04-29T19:04:13;12.20;;;8.30;;
19384;SDS011;9828;54.122;17.974;2023-04-29T19:09:35;15.00;;;7.50;;
19384;SDS011;9828;54.122;17.974;2023-04-29T19:14:56;14.65;;;8.25;;
19384;SDS011;9828;54.122;17.974;2023-04-29T19:20:17;13.87;;;8.73;;
19384;SDS011;9828;54.122;17.974;2023-04-29T19:25:38;12.83;;;8.23;;
19384;SDS011;9828;54.122;17.974;2023-04-29T19:31:00;12.95;;;7.85;;
19384;SDS011;9828;54.122;17.974;2023-04-29T19:36:22;15.33;;;8.47;;
19384;SDS011;9828;54.122;17.974;2023-04-29T19:41:43;12.63;;;7.13;;
19384;SDS011;9828;54.122;17.974;2023-04-29T19:47:04;14.87;;;9.07;;
19384;SDS011;9828;54.122;17.974;2023-04-29T19:52:26;15.57;;;8.53;;
19384;SDS011;9828;54.122;17.974;2023-04-29T19:57:49;16.90;;;10.60;;
19384;SDS011;9828;54.122;17.974;2023-04-29T20:03:13;11.17;;;8.10;;
19384;SDS011;9828;54.122;17.974;2023-04-29T20:08:34;12.00;;;7.27;;
19384;SDS011;9828;54.122;17.974;2023-04-29T20:13:56;15.43;;;8.33;;
19384;SDS011;9828;54.122;17.974;2023-04-29T20:19:18;16.27;;;7.77;;
19384;SDS011;9828;54.122;17.974;2023-04-29T20:24:39;12.30;;;7.37;;
19384;SDS011;9828;54.122;17.974;2023-04-29T20:30:01;15.33;;;7.93;;
19384;SDS011;9828;54.122;17.974;2023-04-29T20:35:23;13.87;;;7.43;;
19384;SDS011;9828;54.122;17.974;2023-04-29T20:40:44;15.23;;;8.60;;
19384;SDS011;9828;54.122;17.974;2023-04-29T20:46:06;13.90;;;8.10;;
19384;SDS011;9828;54.122;17.974;2023-04-29T20:51:27;20.30;;;9.50;;
19384;SDS011;9828;54.122;17.974;2023-04-29T20:56:49;14.10;;;8.20;;
19384;SDS011;9828;54.122;17.974;2023-04-29T21:02:10;18.13;;;8.93;;
19384;SDS011;9828;54.122;17.974;2023-04-29T21:07:32;14.63;;;7.93;;
19384;SDS011;9828;54.122;17.974;2023-04-29T21:12:53;14.27;;;8.20;;
19384;SDS011;9828;54.122;17.974;2023-04-29T21:18:14;15.13;;;8.27;;
19384;SDS011;9828;54.122;17.974;2023-04-29T21:23:36;12.93;;;8.27;;
19384;SDS011;9828;54.122;17.974;2023-04-29T21:28:57;10.93;;;7.03;;
19384;SDS011;9828;54.122;17.974;2023-04-29T21:34:18;9.60;;;6.73;;
19384;SDS011;9828;54.122;17.974;2023-04-29T21:39:39;12.83;;;6.93;;
19384;SDS011;9828;54.122;17.974;2023-04-29T21:45:01;15.43;;;7.07;;
19384;SDS011;9828;54.122;17.974;2023-04-29T21:50:22;11.43;;;7.27;;
19384;SDS011;9828;54.122;17.974;2023-04-29T21:55:43;10.57;;;6.37;;
19384;SDS011;9828;54.122;17.974;2023-04-29T22:01:05;14.47;;;7.30;;
19384;SDS011;9828;54.122;17.974;2023-04-29T22:06:45;10.73;;;7.43;;
19384;SDS011;9828;54.122;17.974;2023-04-29T22:12:06;12.47;;;7.13;;
19384;SDS011;9828;54.122;17.974;2023-04-29T22:17:28;11.17;;;7.03;;
19384;SDS011;9828;54.122;17.974;2023-04-29T22:22:49;13.80;;;7.83;;
19384;SDS011;9828;54.122;17.974;2023-04-29T22:28:11;12.87;;;7.70;;
19384;SDS011;9828;54.122;17.974;2023-04-29T22:33:32;9.67;;;7.27;;
19384;SDS011;9828;54.122;17.974;2023-04-29T22:38:54;13.13;;;7.40;;
19384;SDS011;9828;54.122;17.974;2023-04-29T22:44:15;9.97;;;6.97;;
19384;SDS011;9828;54.122;17.974;2023-04-29T22:49:37;11.97;;;6.50;;
19384;SDS011;9828;54.122;17.974;2023-04-29T22:54:58;11.20;;;6.60;;
19384;SDS011;9828;54.122;17.974;2023-04-29T23:00:19;11.77;;;7.23;;
19384;SDS011;9828;54.122;17.974;2023-04-29T23:05:41;10.60;;;6.17;;
19384;SDS011;9828;54.122;17.974;2023-04-29T23:11:02;10.70;;;6.10;;
19384;SDS011;9828;54.122;17.974;2023-04-29T23:16:24;11.67;;;6.43;;
19384;SDS011;9828;54.122;17.974;2023-04-29T23:21:45;10.20;;;5.70;;
19384;SDS011;9828;54.122;17.974;2023-04-29T23:27:06;13.23;;;6.73;;
19384;SDS011;9828;54.122;17.974;2023-04-29T23:32:27;8.40;;;5.87;;
19384;SDS011;9828;54.122;17.974;2023-04-29T23:37:49;10.07;;;7.00;;
19384;SDS011;9828;54.122;17.974;2023-04-29T23:43:10;10.40;;;6.33;;
19384;SDS011;9828;54.122;17.974;2023-04-29T23:48:32;9.37;;;5.70;;
19384;SDS011;9828;54.122;17.974;2023-04-29T23:53:53;17.20;;;6.43;;
19384;SDS011;9828;54.122;17.974;2023-04-29T23:59:15;10.10;;;6.40;;
